DAL2615 KATL-KFSD
Flight info
| Callsign | DAL2615 |
|---|---|
| Flight time | 2h 20m |
| Altitude | 38000 |
| Route | PENCL2 EMAHH BWG PXV SPI IOW FOD |
| Aircraft | A319/M-SDE3FGHIRWY/LB1 |
Departure
| Time | 2026-05-04 01:01 |
|---|---|
| Airport | Hartsfield Jackson Atlanta International Airport (KATL) |
Arrival
| Time | 2026-05-04 03:22 |
|---|---|
| Airport | Sioux Falls Regional Airport (KFSD) |
| Time | Latitude | Longitude | Altitude | Speed | Heading |
|---|---|---|---|---|---|
| 2026-05-04 00:40 | 33.64298 | -84.43528 | 1007 ft | 0 kts | 269° |
| 2026-05-04 00:50 | 33.64298 | -84.43515 | 1006 ft | 4 kts | 275° |
| 2026-05-04 00:50 | 33.64292 | -84.43485 | 1006 ft | 4 kts | 300° |
| 2026-05-04 00:51 | 33.64275 | -84.43462 | 1006 ft | 4 kts | 339° |
| 2026-05-04 00:51 | 33.64264 | -84.43458 | 1006 ft | 0 kts | 0° |
| 2026-05-04 00:53 | 33.64279 | -84.43458 | 1006 ft | 6 kts | 0° |
| 2026-05-04 00:53 | 33.64337 | -84.43458 | 1006 ft | 9 kts | 0° |
| 2026-05-04 00:54 | 33.64400 | -84.43457 | 1006 ft | 9 kts | 3° |
| 2026-05-04 00:54 | 33.64463 | -84.43434 | 1006 ft | 10 kts | 19° |
| 2026-05-04 00:54 | 33.64526 | -84.43407 | 1007 ft | 10 kts | 37° |
| 2026-05-04 00:54 | 33.64541 | -84.43333 | 1007 ft | 9 kts | 90° |
| 2026-05-04 00:55 | 33.64541 | -84.43280 | 1007 ft | 10 kts | 89° |
| 2026-05-04 00:55 | 33.64542 | -84.43181 | 1007 ft | 16 kts | 90° |
| 2026-05-04 00:55 | 33.64542 | -84.43033 | 1007 ft | 18 kts | 89° |
| 2026-05-04 00:55 | 33.64543 | -84.42880 | 1006 ft | 18 kts | 90° |
| 2026-05-04 00:56 | 33.64543 | -84.42725 | 1006 ft | 19 kts | 90° |
| 2026-05-04 00:56 | 33.64542 | -84.42569 | 1006 ft | 19 kts | 90° |
| 2026-05-04 00:56 | 33.64542 | -84.42410 | 1006 ft | 19 kts | 90° |
| 2026-05-04 00:56 | 33.64542 | -84.42251 | 1006 ft | 19 kts | 89° |
| 2026-05-04 00:57 | 33.64543 | -84.42092 | 1006 ft | 19 kts | 90° |
| 2026-05-04 00:57 | 33.64542 | -84.41934 | 1006 ft | 19 kts | 90° |
| 2026-05-04 00:57 | 33.64542 | -84.41776 | 1006 ft | 19 kts | 89° |
| 2026-05-04 00:57 | 33.64543 | -84.41625 | 1007 ft | 18 kts | 90° |
| 2026-05-04 00:58 | 33.64543 | -84.41474 | 1007 ft | 18 kts | 90° |
| 2026-05-04 00:58 | 33.64542 | -84.41374 | 1007 ft | 18 kts | 90° |
| 2026-05-04 00:58 | 33.64543 | -84.41174 | 1007 ft | 18 kts | 90° |
| 2026-05-04 00:58 | 33.64543 | -84.41071 | 1007 ft | 18 kts | 90° |
| 2026-05-04 00:59 | 33.64543 | -84.40917 | 1006 ft | 19 kts | 90° |
| 2026-05-04 00:59 | 33.64570 | -84.40738 | 1006 ft | 15 kts | 85° |
| 2026-05-04 00:59 | 33.64569 | -84.40655 | 1005 ft | 14 kts | 90° |
| 2026-05-04 00:59 | 33.64586 | -84.40580 | 1005 ft | 9 kts | 44° |
| 2026-05-04 01:00 | 33.64649 | -84.40573 | 1004 ft | 10 kts | 344° |
| 2026-05-04 01:00 | 33.64680 | -84.40646 | 1004 ft | 10 kts | 271° |
| 2026-05-04 01:00 | 33.64680 | -84.40689 | 1004 ft | 4 kts | 270° |
| 2026-05-04 01:00 | 33.64680 | -84.40752 | 1004 ft | 24 kts | 270° |
| 2026-05-04 01:01 | 33.64681 | -84.41274 | 1008 ft | 98 kts | 270° |
| 2026-05-04 01:01 | 33.64679 | -84.42336 | 1010 ft | 154 kts | 270° |
| 2026-05-04 01:01 | 33.64669 | -84.43669 | 1481 ft | 163 kts | 270° |
| 2026-05-04 01:01 | 33.64643 | -84.45036 | 2139 ft | 166 kts | 270° |
| 2026-05-04 01:02 | 33.64855 | -84.46419 | 2703 ft | 175 kts | 294° |
| 2026-05-04 01:02 | 33.65419 | -84.47820 | 3026 ft | 199 kts | 295° |
| 2026-05-04 01:02 | 33.66028 | -84.49425 | 3411 ft | 224 kts | 294° |
| 2026-05-04 01:02 | 33.66699 | -84.51218 | 3864 ft | 248 kts | 294° |
| 2026-05-04 01:03 | 33.67425 | -84.53162 | 4595 ft | 260 kts | 294° |
| 2026-05-04 01:03 | 33.68204 | -84.55141 | 5498 ft | 265 kts | 301° |
| 2026-05-04 01:03 | 33.69416 | -84.56817 | 6401 ft | 270 kts | 322° |
| 2026-05-04 01:03 | 33.71075 | -84.57879 | 7294 ft | 273 kts | 342° |
| 2026-05-04 01:04 | 33.72963 | -84.58188 | 8208 ft | 276 kts | 360° |
| 2026-05-04 01:04 | 33.74889 | -84.58156 | 9166 ft | 278 kts | 359° |
| 2026-05-04 01:04 | 33.76834 | -84.58123 | 10082 ft | 280 kts | 359° |
| 2026-05-04 01:04 | 33.78797 | -84.58096 | 10888 ft | 284 kts | 359° |
| 2026-05-04 01:05 | 33.80782 | -84.58069 | 11680 ft | 287 kts | 358° |
| 2026-05-04 01:05 | 33.82795 | -84.58057 | 12199 ft | 303 kts | 358° |
| 2026-05-04 01:05 | 33.84976 | -84.58213 | 12441 ft | 324 kts | 348° |
| 2026-05-04 01:05 | 33.87196 | -84.58908 | 12985 ft | 333 kts | 342° |
| 2026-05-04 01:06 | 33.89450 | -84.59658 | 13718 ft | 338 kts | 343° |
| 2026-05-04 01:06 | 33.91739 | -84.60404 | 14397 ft | 342 kts | 343° |
| 2026-05-04 01:06 | 33.94052 | -84.61149 | 15091 ft | 346 kts | 343° |
| 2026-05-04 01:06 | 33.96391 | -84.61896 | 15756 ft | 349 kts | 343° |
| 2026-05-04 01:07 | 33.98719 | -84.62641 | 16411 ft | 352 kts | 342° |
| 2026-05-04 01:07 | 34.01100 | -84.63408 | 17067 ft | 356 kts | 342° |
| 2026-05-04 01:07 | 34.03504 | -84.64186 | 17721 ft | 360 kts | 342° |
| 2026-05-04 01:07 | 34.05931 | -84.64971 | 18367 ft | 363 kts | 342° |
| 2026-05-04 01:08 | 34.08388 | -84.65768 | 18943 ft | 367 kts | 342° |
| 2026-05-04 01:08 | 34.10864 | -84.66571 | 19535 ft | 370 kts | 342° |
| 2026-05-04 01:08 | 34.13352 | -84.67373 | 20155 ft | 371 kts | 342° |
| 2026-05-04 01:08 | 34.15859 | -84.68184 | 20744 ft | 374 kts | 342° |
| 2026-05-04 01:09 | 34.18382 | -84.69003 | 21314 ft | 377 kts | 342° |
| 2026-05-04 01:09 | 34.20927 | -84.69831 | 21881 ft | 380 kts | 342° |
| 2026-05-04 01:09 | 34.23498 | -84.70670 | 22440 ft | 383 kts | 341° |
| 2026-05-04 01:09 | 34.26081 | -84.71527 | 22978 ft | 386 kts | 340° |
| 2026-05-04 01:10 | 34.28622 | -84.72486 | 23497 ft | 389 kts | 338° |
| 2026-05-04 01:10 | 34.31183 | -84.73557 | 23963 ft | 391 kts | 337° |
| 2026-05-04 01:10 | 34.33750 | -84.74686 | 24406 ft | 393 kts | 336° |
| 2026-05-04 01:10 | 34.36326 | -84.75829 | 24842 ft | 396 kts | 337° |
| 2026-05-04 01:11 | 34.38917 | -84.76966 | 25310 ft | 397 kts | 337° |
| 2026-05-04 01:11 | 34.41527 | -84.78095 | 25748 ft | 399 kts | 337° |
| 2026-05-04 01:11 | 34.44149 | -84.79213 | 26163 ft | 401 kts | 338° |
| 2026-05-04 01:11 | 34.46794 | -84.80329 | 26602 ft | 403 kts | 338° |
| 2026-05-04 01:12 | 34.49451 | -84.81451 | 27013 ft | 405 kts | 338° |
| 2026-05-04 01:12 | 34.52124 | -84.82583 | 27423 ft | 407 kts | 338° |
| 2026-05-04 01:12 | 34.54807 | -84.83720 | 27832 ft | 410 kts | 338° |
| 2026-05-04 01:12 | 34.57504 | -84.84863 | 28235 ft | 412 kts | 338° |
| 2026-05-04 01:13 | 34.60220 | -84.86017 | 28643 ft | 414 kts | 338° |
| 2026-05-04 01:13 | 34.62942 | -84.87175 | 29058 ft | 416 kts | 337° |
| 2026-05-04 01:13 | 34.65678 | -84.88340 | 29456 ft | 418 kts | 337° |
| 2026-05-04 01:13 | 34.68391 | -84.89497 | 29832 ft | 419 kts | 337° |
| 2026-05-04 01:14 | 34.71152 | -84.90678 | 30186 ft | 422 kts | 337° |
| 2026-05-04 01:14 | 34.73927 | -84.91864 | 30487 ft | 423 kts | 337° |
| 2026-05-04 01:14 | 34.76711 | -84.93054 | 30792 ft | 425 kts | 337° |
| 2026-05-04 01:14 | 34.79507 | -84.94250 | 31091 ft | 427 kts | 337° |
| 2026-05-04 01:15 | 34.82316 | -84.95454 | 31390 ft | 428 kts | 337° |
| 2026-05-04 01:15 | 34.85133 | -84.96660 | 31713 ft | 429 kts | 337° |
| 2026-05-04 01:15 | 34.87947 | -84.97864 | 32131 ft | 427 kts | 337° |
| 2026-05-04 01:15 | 34.90742 | -84.99056 | 32589 ft | 425 kts | 336° |
| 2026-05-04 01:16 | 34.93527 | -85.00244 | 33059 ft | 422 kts | 336° |
| 2026-05-04 01:16 | 34.96291 | -85.01428 | 33504 ft | 420 kts | 336° |
| 2026-05-04 01:16 | 34.99046 | -85.02614 | 33938 ft | 419 kts | 336° |
| 2026-05-04 01:16 | 35.01791 | -85.03799 | 34325 ft | 418 kts | 336° |
| 2026-05-04 01:17 | 35.04496 | -85.04966 | 34667 ft | 417 kts | 336° |
| 2026-05-04 01:17 | 35.07225 | -85.06142 | 35058 ft | 415 kts | 336° |
| 2026-05-04 01:17 | 35.09944 | -85.07322 | 35387 ft | 414 kts | 334° |
| 2026-05-04 01:17 | 35.12521 | -85.08826 | 35673 ft | 409 kts | 325° |
| 2026-05-04 01:18 | 35.14895 | -85.10712 | 35957 ft | 407 kts | 322° |
| 2026-05-04 01:18 | 35.17255 | -85.12627 | 36295 ft | 406 kts | 322° |
| 2026-05-04 01:18 | 35.19603 | -85.14531 | 36600 ft | 405 kts | 322° |
| 2026-05-04 01:18 | 35.21954 | -85.16434 | 36874 ft | 405 kts | 322° |
| 2026-05-04 01:19 | 35.24300 | -85.18333 | 37128 ft | 405 kts | 322° |
| 2026-05-04 01:19 | 35.26650 | -85.20237 | 37374 ft | 405 kts | 322° |
| 2026-05-04 01:19 | 35.28998 | -85.22138 | 37624 ft | 405 kts | 322° |
| 2026-05-04 01:19 | 35.31351 | -85.24045 | 37861 ft | 405 kts | 322° |
| 2026-05-04 01:20 | 35.33698 | -85.25952 | 38057 ft | 406 kts | 322° |
| 2026-05-04 01:20 | 35.38375 | -85.29753 | 38120 ft | 405 kts | 322° |
| 2026-05-04 01:21 | 35.43070 | -85.33566 | 38122 ft | 404 kts | 322° |
| 2026-05-04 01:21 | 35.47749 | -85.37385 | 38123 ft | 404 kts | 321° |
| 2026-05-04 01:22 | 35.52425 | -85.41210 | 38124 ft | 404 kts | 321° |
| 2026-05-04 01:22 | 35.57105 | -85.45039 | 38129 ft | 404 kts | 322° |
| 2026-05-04 01:23 | 35.61822 | -85.48784 | 38126 ft | 404 kts | 324° |
| 2026-05-04 01:23 | 35.66744 | -85.52155 | 38123 ft | 405 kts | 327° |
| 2026-05-04 01:24 | 35.71707 | -85.55413 | 38135 ft | 403 kts | 327° |
| 2026-05-04 01:24 | 35.76632 | -85.58723 | 38125 ft | 403 kts | 326° |
| 2026-05-04 01:25 | 35.81523 | -85.62081 | 38112 ft | 402 kts | 326° |
| 2026-05-04 01:25 | 35.86374 | -85.65423 | 38107 ft | 402 kts | 326° |
| 2026-05-04 01:26 | 35.88518 | -85.66937 | 38183 ft | 401 kts | 325° |
| 2026-05-04 01:26 | 35.90941 | -85.68642 | 38059 ft | 399 kts | 326° |
| 2026-05-04 01:27 | 35.93366 | -85.70305 | 38060 ft | 398 kts | 326° |
| 2026-05-04 01:27 | 35.98225 | -85.73605 | 38063 ft | 399 kts | 326° |
| 2026-05-04 01:28 | 36.03087 | -85.76935 | 38068 ft | 400 kts | 326° |
| 2026-05-04 01:28 | 36.07949 | -85.80295 | 38078 ft | 400 kts | 326° |
| 2026-05-04 01:29 | 36.12810 | -85.83668 | 38086 ft | 401 kts | 326° |
| 2026-05-04 01:29 | 36.17676 | -85.87044 | 38102 ft | 401 kts | 326° |
| 2026-05-04 01:30 | 36.22544 | -85.90412 | 38112 ft | 401 kts | 326° |
| 2026-05-04 01:30 | 36.27406 | -85.93796 | 38117 ft | 401 kts | 325° |
| 2026-05-04 01:31 | 36.32262 | -85.97185 | 38110 ft | 400 kts | 325° |
| 2026-05-04 01:31 | 36.37121 | -86.00572 | 38102 ft | 401 kts | 325° |
| 2026-05-04 01:32 | 36.41947 | -86.03941 | 38095 ft | 401 kts | 325° |
| 2026-05-04 01:32 | 36.46799 | -86.07327 | 38098 ft | 399 kts | 325° |
| 2026-05-04 01:33 | 36.51627 | -86.10709 | 38084 ft | 398 kts | 325° |
| 2026-05-04 01:33 | 36.56456 | -86.14100 | 38084 ft | 398 kts | 325° |
| 2026-05-04 01:34 | 36.61279 | -86.17487 | 38077 ft | 398 kts | 325° |
| 2026-05-04 01:34 | 36.66100 | -86.20873 | 38077 ft | 397 kts | 325° |
| 2026-05-04 01:35 | 36.70907 | -86.24259 | 38091 ft | 396 kts | 325° |
| 2026-05-04 01:35 | 36.75693 | -86.27638 | 38078 ft | 395 kts | 325° |
| 2026-05-04 01:36 | 36.80477 | -86.31017 | 38072 ft | 395 kts | 325° |
| 2026-05-04 01:36 | 36.85228 | -86.34374 | 38066 ft | 395 kts | 325° |
| 2026-05-04 01:37 | 36.90010 | -86.37757 | 38060 ft | 395 kts | 325° |
| 2026-05-04 01:37 | 36.94778 | -86.41157 | 38101 ft | 393 kts | 322° |
| 2026-05-04 01:38 | 36.98827 | -86.45571 | 38087 ft | 384 kts | 309° |
| 2026-05-04 01:38 | 37.02438 | -86.50498 | 38076 ft | 384 kts | 309° |
| 2026-05-04 01:39 | 37.06045 | -86.55428 | 38065 ft | 384 kts | 309° |
| 2026-05-04 01:39 | 37.09651 | -86.60353 | 38058 ft | 383 kts | 309° |
| 2026-05-04 01:40 | 37.13254 | -86.65275 | 38052 ft | 383 kts | 309° |
| 2026-05-04 01:40 | 37.16846 | -86.70192 | 38050 ft | 382 kts | 309° |
| 2026-05-04 01:41 | 37.20427 | -86.75121 | 38054 ft | 382 kts | 309° |
| 2026-05-04 01:41 | 37.23971 | -86.80001 | 38045 ft | 381 kts | 309° |
| 2026-05-04 01:42 | 37.27536 | -86.84916 | 38038 ft | 381 kts | 309° |
| 2026-05-04 01:42 | 37.31100 | -86.89836 | 38028 ft | 381 kts | 309° |
| 2026-05-04 01:43 | 37.34670 | -86.94757 | 38001 ft | 381 kts | 309° |
| 2026-05-04 01:43 | 37.38235 | -86.99681 | 38022 ft | 380 kts | 309° |
| 2026-05-04 01:44 | 37.41790 | -87.04603 | 38024 ft | 380 kts | 309° |
| 2026-05-04 01:44 | 37.43564 | -87.07066 | 38029 ft | 380 kts | 309° |
| 2026-05-04 01:46 | 37.57531 | -87.26547 | 38019 ft | 379 kts | 309° |
| 2026-05-04 01:46 | 37.61066 | -87.31487 | 38018 ft | 379 kts | 309° |
| 2026-05-04 01:47 | 37.64605 | -87.36423 | 38014 ft | 379 kts | 309° |
| 2026-05-04 01:47 | 37.68135 | -87.41364 | 38018 ft | 378 kts | 309° |
| 2026-05-04 01:48 | 37.71629 | -87.46284 | 38034 ft | 378 kts | 309° |
| 2026-05-04 01:48 | 37.75149 | -87.51241 | 38024 ft | 379 kts | 309° |
| 2026-05-04 01:49 | 37.78673 | -87.56192 | 38019 ft | 379 kts | 309° |
| 2026-05-04 01:49 | 37.82193 | -87.61158 | 38018 ft | 379 kts | 309° |
| 2026-05-04 01:50 | 37.85712 | -87.66133 | 38016 ft | 379 kts | 309° |
| 2026-05-04 01:50 | 37.89228 | -87.71116 | 38011 ft | 379 kts | 309° |
| 2026-05-04 01:51 | 37.92775 | -87.76053 | 38012 ft | 380 kts | 314° |
| 2026-05-04 01:51 | 37.96927 | -87.80196 | 38032 ft | 382 kts | 319° |
| 2026-05-04 01:52 | 38.01159 | -87.84288 | 38015 ft | 382 kts | 318° |
| 2026-05-04 01:52 | 38.05380 | -87.88391 | 38006 ft | 382 kts | 318° |
| 2026-05-04 01:53 | 38.09598 | -87.92500 | 37999 ft | 382 kts | 318° |
| 2026-05-04 01:53 | 38.13814 | -87.96613 | 37990 ft | 382 kts | 318° |
| 2026-05-04 01:54 | 38.18032 | -88.00723 | 38035 ft | 382 kts | 319° |
| 2026-05-04 01:54 | 38.22204 | -88.04797 | 37977 ft | 376 kts | 319° |
| 2026-05-04 01:55 | 38.26349 | -88.08853 | 37979 ft | 376 kts | 318° |
| 2026-05-04 01:55 | 38.30461 | -88.12886 | 37987 ft | 374 kts | 319° |
| 2026-05-04 01:56 | 38.34578 | -88.16918 | 37986 ft | 373 kts | 318° |
| 2026-05-04 01:56 | 38.38678 | -88.20953 | 37988 ft | 372 kts | 318° |
| 2026-05-04 01:57 | 38.42767 | -88.24981 | 37979 ft | 371 kts | 318° |
| 2026-05-04 01:57 | 38.46852 | -88.29006 | 37976 ft | 371 kts | 318° |
| 2026-05-04 01:58 | 38.50931 | -88.33031 | 37976 ft | 370 kts | 318° |
| 2026-05-04 01:58 | 38.54983 | -88.37045 | 37969 ft | 370 kts | 318° |
| 2026-05-04 01:59 | 38.59050 | -88.41073 | 37952 ft | 370 kts | 318° |
| 2026-05-04 01:59 | 38.63116 | -88.45114 | 37967 ft | 370 kts | 318° |
| 2026-05-04 02:00 | 38.67181 | -88.49156 | 37915 ft | 370 kts | 318° |
| 2026-05-04 02:00 | 38.71256 | -88.53207 | 37953 ft | 371 kts | 318° |
| 2026-05-04 02:01 | 38.75345 | -88.57272 | 37953 ft | 372 kts | 318° |
| 2026-05-04 02:01 | 38.79438 | -88.61346 | 37949 ft | 373 kts | 318° |
| 2026-05-04 02:02 | 38.83537 | -88.65434 | 37939 ft | 373 kts | 318° |
| 2026-05-04 02:02 | 38.87623 | -88.69527 | 37929 ft | 373 kts | 318° |
| 2026-05-04 02:03 | 38.91694 | -88.73611 | 37925 ft | 374 kts | 317° |
| 2026-05-04 02:03 | 38.95808 | -88.77737 | 37915 ft | 376 kts | 317° |
| 2026-05-04 02:04 | 38.99938 | -88.81889 | 37913 ft | 377 kts | 317° |
| 2026-05-04 02:04 | 39.04077 | -88.86056 | 37890 ft | 378 kts | 318° |
| 2026-05-04 02:05 | 39.08219 | -88.90233 | 37895 ft | 379 kts | 318° |
| 2026-05-04 02:05 | 39.12371 | -88.94427 | 37920 ft | 380 kts | 318° |
| 2026-05-04 02:06 | 39.16537 | -88.98642 | 37881 ft | 382 kts | 318° |
| 2026-05-04 02:06 | 39.20701 | -89.02859 | 37882 ft | 384 kts | 318° |
| 2026-05-04 02:07 | 39.24906 | -89.07137 | 37883 ft | 386 kts | 317° |
| 2026-05-04 02:07 | 39.29125 | -89.11424 | 37877 ft | 386 kts | 318° |
| 2026-05-04 02:08 | 39.33348 | -89.15706 | 37881 ft | 386 kts | 318° |
| 2026-05-04 02:08 | 39.36867 | -89.19281 | 37905 ft | 387 kts | 318° |
| 2026-05-04 02:09 | 39.41100 | -89.23609 | 37888 ft | 388 kts | 318° |
| 2026-05-04 02:09 | 39.45334 | -89.27946 | 37905 ft | 388 kts | 318° |
| 2026-05-04 02:10 | 39.49570 | -89.32281 | 37910 ft | 388 kts | 318° |
| 2026-05-04 02:10 | 39.53810 | -89.36617 | 37915 ft | 388 kts | 318° |
| 2026-05-04 02:11 | 39.58045 | -89.40965 | 37956 ft | 388 kts | 318° |
| 2026-05-04 02:11 | 39.62278 | -89.45333 | 37935 ft | 389 kts | 318° |
| 2026-05-04 02:12 | 39.66523 | -89.49708 | 37920 ft | 389 kts | 318° |
| 2026-05-04 02:12 | 39.70736 | -89.54055 | 37908 ft | 389 kts | 318° |
| 2026-05-04 02:13 | 39.74971 | -89.58439 | 37904 ft | 389 kts | 318° |
| 2026-05-04 02:13 | 39.79204 | -89.62822 | 37904 ft | 389 kts | 318° |
| 2026-05-04 02:14 | 39.83446 | -89.67211 | 37922 ft | 390 kts | 318° |
| 2026-05-04 02:14 | 39.87624 | -89.71707 | 37916 ft | 389 kts | 316° |
| 2026-05-04 02:15 | 39.91713 | -89.76335 | 37909 ft | 389 kts | 316° |
| 2026-05-04 02:15 | 39.95800 | -89.80967 | 37879 ft | 389 kts | 316° |
| 2026-05-04 02:16 | 39.99907 | -89.85576 | 37878 ft | 389 kts | 316° |
| 2026-05-04 02:16 | 40.04019 | -89.90175 | 37908 ft | 390 kts | 316° |
| 2026-05-04 02:17 | 40.08104 | -89.94760 | 37893 ft | 390 kts | 316° |
| 2026-05-04 02:17 | 40.12220 | -89.99389 | 37873 ft | 390 kts | 316° |
| 2026-05-04 02:18 | 40.16326 | -90.04024 | 37882 ft | 389 kts | 316° |
| 2026-05-04 02:18 | 40.20425 | -90.08652 | 37882 ft | 389 kts | 316° |
| 2026-05-04 02:19 | 40.24519 | -90.13273 | 37884 ft | 388 kts | 316° |
| 2026-05-04 02:19 | 40.28606 | -90.17896 | 37896 ft | 388 kts | 316° |
| 2026-05-04 02:20 | 40.32693 | -90.22538 | 37887 ft | 389 kts | 316° |
| 2026-05-04 02:20 | 40.36777 | -90.27186 | 37886 ft | 389 kts | 316° |
| 2026-05-04 02:21 | 40.40844 | -90.31807 | 37887 ft | 389 kts | 316° |
| 2026-05-04 02:21 | 40.44926 | -90.36470 | 37891 ft | 389 kts | 316° |
| 2026-05-04 02:22 | 40.49006 | -90.41134 | 37894 ft | 389 kts | 316° |
| 2026-05-04 02:22 | 40.53093 | -90.45803 | 37885 ft | 389 kts | 316° |
| 2026-05-04 02:23 | 40.57181 | -90.50483 | 37886 ft | 390 kts | 316° |
| 2026-05-04 02:23 | 40.61277 | -90.55178 | 37888 ft | 390 kts | 316° |
| 2026-05-04 02:24 | 40.65375 | -90.59888 | 37887 ft | 390 kts | 316° |
| 2026-05-04 02:24 | 40.69456 | -90.64601 | 37882 ft | 390 kts | 316° |
| 2026-05-04 02:25 | 40.73516 | -90.69298 | 37873 ft | 390 kts | 316° |
| 2026-05-04 02:25 | 40.77601 | -90.74016 | 37864 ft | 390 kts | 316° |
| 2026-05-04 02:26 | 40.81691 | -90.78743 | 37847 ft | 390 kts | 316° |
| 2026-05-04 02:26 | 40.85765 | -90.83476 | 37853 ft | 390 kts | 316° |
| 2026-05-04 02:27 | 40.89846 | -90.88210 | 37854 ft | 390 kts | 316° |
| 2026-05-04 02:27 | 40.93899 | -90.92922 | 37856 ft | 391 kts | 316° |
| 2026-05-04 02:28 | 40.97984 | -90.97684 | 37853 ft | 391 kts | 316° |
| 2026-05-04 02:28 | 41.02066 | -91.02459 | 37845 ft | 392 kts | 316° |
| 2026-05-04 02:29 | 41.06155 | -91.07240 | 37845 ft | 392 kts | 316° |
| 2026-05-04 02:29 | 41.10251 | -91.12024 | 37842 ft | 392 kts | 316° |
| 2026-05-04 02:30 | 41.14334 | -91.16819 | 37837 ft | 392 kts | 316° |
| 2026-05-04 02:30 | 41.18414 | -91.21630 | 37833 ft | 393 kts | 316° |
| 2026-05-04 02:31 | 41.22504 | -91.26447 | 37839 ft | 393 kts | 316° |
| 2026-05-04 02:31 | 41.26596 | -91.31272 | 37841 ft | 394 kts | 316° |
| 2026-05-04 02:32 | 41.30686 | -91.36111 | 37842 ft | 393 kts | 316° |
| 2026-05-04 02:32 | 41.34780 | -91.40960 | 37865 ft | 394 kts | 316° |
| 2026-05-04 02:33 | 41.38878 | -91.45816 | 37834 ft | 395 kts | 316° |
| 2026-05-04 02:33 | 41.42956 | -91.50661 | 37827 ft | 396 kts | 316° |
| 2026-05-04 02:34 | 41.47060 | -91.55551 | 37814 ft | 396 kts | 316° |
| 2026-05-04 02:34 | 41.51111 | -91.60529 | 37824 ft | 395 kts | 310° |
| 2026-05-04 02:35 | 41.54141 | -91.66599 | 37830 ft | 394 kts | 299° |
| 2026-05-04 02:35 | 41.56853 | -91.72962 | 37839 ft | 394 kts | 300° |
| 2026-05-04 02:36 | 41.59562 | -91.79341 | 37824 ft | 395 kts | 300° |
| 2026-05-04 02:36 | 41.62264 | -91.85733 | 37825 ft | 395 kts | 299° |
| 2026-05-04 02:37 | 41.64967 | -91.92140 | 37797 ft | 396 kts | 299° |
| 2026-05-04 02:37 | 41.67666 | -91.98551 | 37799 ft | 396 kts | 299° |
| 2026-05-04 02:38 | 41.70350 | -92.04927 | 37814 ft | 396 kts | 299° |
| 2026-05-04 02:38 | 41.73047 | -92.11353 | 37810 ft | 396 kts | 299° |
| 2026-05-04 02:39 | 41.75736 | -92.17790 | 37842 ft | 396 kts | 299° |
| 2026-05-04 02:39 | 41.78423 | -92.24228 | 37828 ft | 396 kts | 299° |
| 2026-05-04 02:40 | 41.81112 | -92.30678 | 37802 ft | 396 kts | 299° |
| 2026-05-04 02:40 | 41.83797 | -92.37130 | 37818 ft | 396 kts | 299° |
| 2026-05-04 02:41 | 41.86479 | -92.43594 | 37824 ft | 396 kts | 299° |
| 2026-05-04 02:41 | 41.89157 | -92.50056 | 37829 ft | 397 kts | 299° |
| 2026-05-04 02:42 | 41.91831 | -92.56532 | 37835 ft | 397 kts | 299° |
| 2026-05-04 02:42 | 41.94484 | -92.62977 | 37827 ft | 397 kts | 299° |
| 2026-05-04 02:43 | 41.97154 | -92.69462 | 37834 ft | 397 kts | 299° |
| 2026-05-04 02:43 | 41.99823 | -92.75962 | 37834 ft | 397 kts | 299° |
| 2026-05-04 02:44 | 42.02493 | -92.82473 | 37817 ft | 398 kts | 299° |
| 2026-05-04 02:44 | 42.05163 | -92.89009 | 37823 ft | 398 kts | 299° |
| 2026-05-04 02:45 | 42.07821 | -92.95542 | 37824 ft | 398 kts | 299° |
| 2026-05-04 02:45 | 42.10483 | -93.02088 | 37820 ft | 398 kts | 299° |
| 2026-05-04 02:46 | 42.13141 | -93.08634 | 37818 ft | 399 kts | 298° |
| 2026-05-04 02:46 | 42.15798 | -93.15204 | 37838 ft | 399 kts | 298° |
| 2026-05-04 02:47 | 42.18453 | -93.21777 | 37829 ft | 399 kts | 298° |
| 2026-05-04 02:47 | 42.21094 | -93.28322 | 37835 ft | 400 kts | 298° |
| 2026-05-04 02:48 | 42.23748 | -93.34918 | 37833 ft | 400 kts | 298° |
| 2026-05-04 02:48 | 42.26399 | -93.41523 | 37840 ft | 400 kts | 298° |
| 2026-05-04 02:49 | 42.29043 | -93.48142 | 37842 ft | 400 kts | 298° |
| 2026-05-04 02:49 | 42.31687 | -93.54761 | 37846 ft | 400 kts | 298° |
| 2026-05-04 02:50 | 42.34333 | -93.61387 | 37842 ft | 401 kts | 298° |
| 2026-05-04 02:50 | 42.36975 | -93.68017 | 37855 ft | 401 kts | 298° |
| 2026-05-04 02:51 | 42.39613 | -93.74671 | 37846 ft | 401 kts | 298° |
| 2026-05-04 02:51 | 42.42249 | -93.81334 | 37818 ft | 401 kts | 298° |
| 2026-05-04 02:52 | 42.44875 | -93.88001 | 37820 ft | 401 kts | 298° |
| 2026-05-04 02:52 | 42.47486 | -93.94631 | 37824 ft | 402 kts | 298° |
| 2026-05-04 02:53 | 42.50117 | -94.01309 | 37826 ft | 402 kts | 298° |
| 2026-05-04 02:53 | 42.52742 | -94.08001 | 37846 ft | 402 kts | 298° |
| 2026-05-04 02:54 | 42.55357 | -94.14694 | 37863 ft | 402 kts | 298° |
| 2026-05-04 02:54 | 42.57975 | -94.21404 | 37832 ft | 402 kts | 298° |
| 2026-05-04 02:55 | 42.62115 | -94.31298 | 37836 ft | 402 kts | 307° |
| 2026-05-04 02:56 | 42.65505 | -94.37348 | 37849 ft | 403 kts | 307° |
| 2026-05-04 02:56 | 42.68894 | -94.43413 | 37851 ft | 403 kts | 307° |
| 2026-05-04 02:57 | 42.72271 | -94.49485 | 37851 ft | 403 kts | 307° |
| 2026-05-04 02:57 | 42.75631 | -94.55538 | 37856 ft | 403 kts | 307° |
| 2026-05-04 02:58 | 42.79009 | -94.61641 | 37839 ft | 403 kts | 307° |
| 2026-05-04 02:58 | 42.82389 | -94.67758 | 37495 ft | 404 kts | 307° |
| 2026-05-04 02:58 | 42.84078 | -94.70820 | 37222 ft | 404 kts | 307° |
| 2026-05-04 02:59 | 42.85766 | -94.73882 | 36939 ft | 404 kts | 307° |
| 2026-05-04 02:59 | 42.87457 | -94.76954 | 36246 ft | 406 kts | 307° |
| 2026-05-04 02:59 | 42.88578 | -94.78994 | 35775 ft | 406 kts | 307° |
| 2026-05-04 02:59 | 42.90273 | -94.82084 | 35031 ft | 408 kts | 307° |
| 2026-05-04 03:00 | 42.91976 | -94.85190 | 34219 ft | 411 kts | 307° |
| 2026-05-04 03:00 | 42.93693 | -94.88319 | 33372 ft | 413 kts | 307° |
| 2026-05-04 03:00 | 42.95412 | -94.91453 | 32704 ft | 410 kts | 307° |
| 2026-05-04 03:00 | 42.97103 | -94.94537 | 32218 ft | 403 kts | 307° |
| 2026-05-04 03:01 | 42.98775 | -94.97592 | 31675 ft | 398 kts | 308° |
| 2026-05-04 03:01 | 43.00425 | -95.00613 | 31153 ft | 394 kts | 308° |
| 2026-05-04 03:01 | 43.02056 | -95.03599 | 30641 ft | 390 kts | 308° |
| 2026-05-04 03:01 | 43.03670 | -95.06558 | 30140 ft | 387 kts | 308° |
| 2026-05-04 03:02 | 43.05271 | -95.09499 | 29588 ft | 384 kts | 308° |
| 2026-05-04 03:02 | 43.06848 | -95.12408 | 29083 ft | 379 kts | 308° |
| 2026-05-04 03:02 | 43.08410 | -95.15292 | 28597 ft | 374 kts | 308° |
| 2026-05-04 03:02 | 43.09934 | -95.18105 | 28118 ft | 371 kts | 308° |
| 2026-05-04 03:03 | 43.11464 | -95.20924 | 27656 ft | 367 kts | 308° |
| 2026-05-04 03:03 | 43.12982 | -95.23719 | 27181 ft | 365 kts | 308° |
| 2026-05-04 03:03 | 43.14491 | -95.26502 | 26732 ft | 363 kts | 308° |
| 2026-05-04 03:03 | 43.15988 | -95.29270 | 26288 ft | 360 kts | 308° |
| 2026-05-04 03:04 | 43.17473 | -95.32020 | 25849 ft | 358 kts | 308° |
| 2026-05-04 03:04 | 43.18948 | -95.34750 | 25411 ft | 354 kts | 308° |
| 2026-05-04 03:04 | 43.20410 | -95.37458 | 24994 ft | 351 kts | 308° |
| 2026-05-04 03:04 | 43.21857 | -95.40139 | 24585 ft | 348 kts | 308° |
| 2026-05-04 03:05 | 43.23273 | -95.42768 | 24181 ft | 345 kts | 308° |
| 2026-05-04 03:05 | 43.24692 | -95.45404 | 23770 ft | 342 kts | 307° |
| 2026-05-04 03:05 | 43.26099 | -95.48018 | 23350 ft | 339 kts | 307° |
| 2026-05-04 03:05 | 43.27494 | -95.50611 | 22905 ft | 337 kts | 307° |
| 2026-05-04 03:06 | 43.28882 | -95.53192 | 22491 ft | 334 kts | 307° |
| 2026-05-04 03:06 | 43.30255 | -95.55752 | 22090 ft | 332 kts | 307° |
| 2026-05-04 03:06 | 43.31615 | -95.58297 | 21668 ft | 330 kts | 307° |
| 2026-05-04 03:06 | 43.32968 | -95.60834 | 21256 ft | 328 kts | 307° |
| 2026-05-04 03:07 | 43.34310 | -95.63351 | 20826 ft | 326 kts | 307° |
| 2026-05-04 03:07 | 43.35643 | -95.65851 | 20406 ft | 323 kts | 306° |
| 2026-05-04 03:07 | 43.36971 | -95.68332 | 19998 ft | 321 kts | 306° |
| 2026-05-04 03:07 | 43.38291 | -95.70804 | 19580 ft | 320 kts | 306° |
| 2026-05-04 03:08 | 43.39602 | -95.73268 | 19166 ft | 318 kts | 306° |
| 2026-05-04 03:08 | 43.40905 | -95.75720 | 18755 ft | 317 kts | 306° |
| 2026-05-04 03:08 | 43.42186 | -95.78133 | 18350 ft | 316 kts | 306° |
| 2026-05-04 03:08 | 43.43482 | -95.80571 | 17921 ft | 315 kts | 306° |
| 2026-05-04 03:09 | 43.44774 | -95.82994 | 17494 ft | 313 kts | 306° |
| 2026-05-04 03:09 | 43.46050 | -95.85389 | 17247 ft | 307 kts | 305° |
| 2026-05-04 03:09 | 43.47303 | -95.87753 | 16894 ft | 304 kts | 305° |
| 2026-05-04 03:09 | 43.48542 | -95.90096 | 16528 ft | 302 kts | 305° |
| 2026-05-04 03:10 | 43.49778 | -95.92426 | 16141 ft | 301 kts | 305° |
| 2026-05-04 03:10 | 43.51009 | -95.94747 | 15762 ft | 299 kts | 305° |
| 2026-05-04 03:10 | 43.52233 | -95.97060 | 15386 ft | 298 kts | 305° |
| 2026-05-04 03:10 | 43.53449 | -95.99363 | 15016 ft | 297 kts | 304° |
| 2026-05-04 03:11 | 43.54660 | -96.01659 | 14635 ft | 296 kts | 304° |
| 2026-05-04 03:11 | 43.55869 | -96.03951 | 14256 ft | 295 kts | 304° |
| 2026-05-04 03:11 | 43.57075 | -96.06237 | 13872 ft | 294 kts | 304° |
| 2026-05-04 03:11 | 43.58277 | -96.08516 | 13480 ft | 293 kts | 304° |
| 2026-05-04 03:12 | 43.59472 | -96.10790 | 13052 ft | 291 kts | 304° |
| 2026-05-04 03:12 | 43.60658 | -96.13045 | 12676 ft | 289 kts | 304° |
| 2026-05-04 03:12 | 43.61837 | -96.15289 | 12299 ft | 288 kts | 304° |
| 2026-05-04 03:12 | 43.63006 | -96.17517 | 11914 ft | 286 kts | 304° |
| 2026-05-04 03:13 | 43.64169 | -96.19740 | 11530 ft | 285 kts | 304° |
| 2026-05-04 03:13 | 43.65324 | -96.21948 | 11151 ft | 283 kts | 304° |
| 2026-05-04 03:13 | 43.66474 | -96.24146 | 10773 ft | 282 kts | 304° |
| 2026-05-04 03:13 | 43.67618 | -96.26338 | 10376 ft | 281 kts | 304° |
| 2026-05-04 03:14 | 43.68752 | -96.28507 | 10093 ft | 276 kts | 304° |
| 2026-05-04 03:14 | 43.69867 | -96.30637 | 9900 ft | 272 kts | 304° |
| 2026-05-04 03:14 | 43.70960 | -96.32728 | 9785 ft | 271 kts | 304° |
| 2026-05-04 03:14 | 43.72071 | -96.34857 | 9281 ft | 278 kts | 304° |
| 2026-05-04 03:15 | 43.73194 | -96.37011 | 8927 ft | 274 kts | 303° |
| 2026-05-04 03:15 | 43.74300 | -96.39135 | 8550 ft | 270 kts | 303° |
| 2026-05-04 03:15 | 43.75395 | -96.41241 | 8138 ft | 269 kts | 303° |
| 2026-05-04 03:15 | 43.76484 | -96.43331 | 7732 ft | 267 kts | 303° |
| 2026-05-04 03:16 | 43.77560 | -96.45395 | 7333 ft | 263 kts | 303° |
| 2026-05-04 03:16 | 43.78383 | -96.47597 | 6934 ft | 255 kts | 284° |
| 2026-05-04 03:16 | 43.78533 | -96.49999 | 6539 ft | 250 kts | 263° |
| 2026-05-04 03:16 | 43.78020 | -96.52268 | 6150 ft | 248 kts | 243° |
| 2026-05-04 03:17 | 43.77059 | -96.54233 | 5740 ft | 245 kts | 237° |
| 2026-05-04 03:17 | 43.76083 | -96.56150 | 5327 ft | 242 kts | 237° |
| 2026-05-04 03:17 | 43.75111 | -96.58034 | 4938 ft | 239 kts | 233° |
| 2026-05-04 03:17 | 43.73844 | -96.59508 | 4541 ft | 239 kts | 217° |
| 2026-05-04 03:18 | 43.72461 | -96.60764 | 4147 ft | 236 kts | 217° |
| 2026-05-04 03:18 | 43.71115 | -96.62033 | 3735 ft | 232 kts | 218° |
| 2026-05-04 03:18 | 43.69801 | -96.63299 | 3293 ft | 229 kts | 218° |
| 2026-05-04 03:18 | 43.68542 | -96.64513 | 3286 ft | 210 kts | 218° |
| 2026-05-04 03:19 | 43.67401 | -96.65611 | 3365 ft | 190 kts | 219° |
| 2026-05-04 03:19 | 43.66371 | -96.66604 | 3173 ft | 174 kts | 219° |
| 2026-05-04 03:19 | 43.65449 | -96.67490 | 2950 ft | 150 kts | 220° |
| 2026-05-04 03:19 | 43.64654 | -96.68256 | 2755 ft | 135 kts | 220° |
| 2026-05-04 03:20 | 43.63906 | -96.68978 | 2582 ft | 129 kts | 219° |
| 2026-05-04 03:20 | 43.63181 | -96.69677 | 2412 ft | 127 kts | 220° |
| 2026-05-04 03:20 | 43.62458 | -96.70374 | 2239 ft | 127 kts | 219° |
| 2026-05-04 03:20 | 43.61733 | -96.71072 | 2071 ft | 127 kts | 218° |
| 2026-05-04 03:21 | 43.61004 | -96.71774 | 1897 ft | 128 kts | 217° |
| 2026-05-04 03:21 | 43.60271 | -96.72487 | 1719 ft | 129 kts | 217° |
| 2026-05-04 03:21 | 43.59529 | -96.73194 | 1526 ft | 129 kts | 217° |
| 2026-05-04 03:21 | 43.58822 | -96.73880 | 1431 ft | 111 kts | 214° |
| 2026-05-04 03:22 | 43.58335 | -96.74343 | 1429 ft | 55 kts | 214° |
| 2026-05-04 03:22 | 43.58184 | -96.74425 | 1430 ft | 16 kts | 140° |
| 2026-05-04 03:22 | 43.58120 | -96.74300 | 1431 ft | 16 kts | 121° |
| 2026-05-04 03:22 | 43.58084 | -96.74156 | 1431 ft | 16 kts | 102° |
| 2026-05-04 03:23 | 43.58059 | -96.74002 | 1431 ft | 17 kts | 102° |
| 2026-05-04 03:23 | 43.58034 | -96.73843 | 1432 ft | 17 kts | 100° |
| 2026-05-04 03:23 | 43.58048 | -96.73691 | 1432 ft | 13 kts | 71° |
| 2026-05-04 03:23 | 43.58031 | -96.73584 | 1431 ft | 9 kts | 101° |
| 2026-05-04 03:24 | 43.58036 | -96.73544 | 1431 ft | 0 kts | 77° |
| 2026-05-04 03:24 | 43.58035 | -96.73537 | 1431 ft | 2 kts | 89° |
| 2026-05-04 03:24 | 43.58007 | -96.73472 | 1431 ft | 11 kts | 122° |
| 2026-05-04 03:24 | 43.58000 | -96.73391 | 1431 ft | 6 kts | 57° |
| 2026-05-04 03:25 | 43.58013 | -96.73372 | 1431 ft | 0 kts | 47° |